Time;durP1;ratioP1;P1;durP2;ratioP2;P2;SDS_P1;SDS_P2;PMS_P1;PMS_P2;Temp;Humidity;BMP_temperature;BMP_pressure;BME280_temperature;BME280_humidity;BME280_pressure;Samples;Min_cycle;Max_cycle;Signal;HPM_P1;HPM_P2
2021/01/30 00:00:28;;;;;;;1.70;1.10;;;6.80;99.90;;;;;;5033480;28;20307;-56
2021/01/30 00:02:56;;;;;;;3.67;1.05;;;6.70;99.90;;;;;;5033600;28;20228;-55
2021/01/30 00:05:24;;;;;;;2.15;1.13;;;6.80;99.90;;;;;;5033672;28;20664;-52
2021/01/30 00:07:52;;;;;;;2.28;1.27;;;6.80;99.90;;;;;;5033804;28;20287;-50
2021/01/30 00:10:20;;;;;;;2.13;1.50;;;6.80;99.90;;;;;;5033435;28;20299;-54
2021/01/30 00:12:47;;;;;;;2.28;1.33;;;6.80;99.90;;;;;;5033652;28;20209;-57
2021/01/30 00:15:18;;;;;;;5.43;1.50;;;6.90;99.90;;;;;;5033687;28;20235;-56
2021/01/30 00:17:46;;;;;;;2.20;1.27;;;6.90;99.90;;;;;;5033139;28;20213;-58
2021/01/30 00:20:16;;;;;;;2.13;1.20;;;6.90;99.90;;;;;;5033467;28;20255;-55
2021/01/30 00:22:43;;;;;;;1.57;1.10;;;6.90;99.90;;;;;;5033191;28;20217;-54
2021/01/30 00:25:11;;;;;;;1.15;1.00;;;7.00;99.90;;;;;;5033179;28;20205;-52
2021/01/30 00:27:38;;;;;;;2.63;1.00;;;7.00;99.90;;;;;;5033245;28;20299;-53
2021/01/30 00:30:09;;;;;;;0.90;0.90;;;7.00;99.90;;;;;;5033016;28;20295;-58
2021/01/30 00:32:36;;;;;;;2.13;1.25;;;7.10;99.90;;;;;;5032931;28;20582;-54
2021/01/30 00:35:05;;;;;;;1.80;1.23;;;7.10;99.90;;;;;;5032896;28;20266;-57
2021/01/30 00:37:32;;;;;;;2.97;1.00;;;7.00;99.90;;;;;;5032939;28;20232;-52
2021/01/30 00:40:00;;;;;;;2.70;1.38;;;7.10;99.90;;;;;;5033012;28;20753;-52
2021/01/30 00:42:27;;;;;;;1.42;0.90;;;7.10;99.90;;;;;;5032851;28;20278;-51
2021/01/30 00:44:54;;;;;;;1.77;1.20;;;7.10;99.90;;;;;;5032844;28;20213;-53
2021/01/30 00:47:22;;;;;;;1.25;1.00;;;7.10;99.90;;;;;;5032940;28;20292;-52
2021/01/30 00:49:49;;;;;;;2.80;1.20;;;7.10;99.90;;;;;;5032620;28;20205;-55
2021/01/30 00:52:18;;;;;;;1.63;1.10;;;7.20;99.90;;;;;;5032380;28;20623;-51
2021/01/30 00:54:45;;;;;;;1.55;0.95;;;7.10;99.90;;;;;;5033453;28;20668;-48
2021/01/30 00:57:12;;;;;;;1.15;1.00;;;7.10;99.90;;;;;;5032215;28;20654;-51
2021/01/30 00:59:41;;;;;;;1.40;1.10;;;7.20;99.90;;;;;;5032495;28;20299;-55
2021/01/30 01:02:08;;;;;;;3.07;1.40;;;7.10;99.90;;;;;;5032655;28;20539;-50
2021/01/30 01:04:35;;;;;;;1.20;0.85;;;7.20;99.90;;;;;;5032374;28;20239;-51
2021/01/30 01:07:03;;;;;;;1.55;1.08;;;7.10;99.90;;;;;;5032191;28;20211;-50
2021/01/30 01:09:31;;;;;;;1.27;1.17;;;7.10;99.90;;;;;;5032266;28;20571;-57
2021/01/30 01:11:58;;;;;;;1.07;0.97;;;7.10;99.90;;;;;;5032472;28;20217;-52
2021/01/30 01:14:26;;;;;;;0.98;0.73;;;7.10;99.90;;;;;;5032309;28;20240;-54
2021/01/30 01:16:53;;;;;;;1.65;1.50;;;7.10;99.90;;;;;;5032256;28;20629;-56
2021/01/30 01:19:21;;;;;;;1.02;0.90;;;7.20;99.90;;;;;;5032020;28;20204;-55
2021/01/30 01:21:50;;;;;;;4.17;1.03;;;7.20;99.90;;;;;;5032127;28;20309;-53
2021/01/30 01:24:19;;;;;;;2.08;1.20;;;7.20;99.90;;;;;;5031994;28;20244;-54
2021/01/30 01:26:48;;;;;;;1.67;0.93;;;7.20;99.90;;;;;;5032087;28;20201;-50
2021/01/30 01:29:18;;;;;;;0.80;0.80;;;7.10;99.90;;;;;;5031510;28;20248;-55
2021/01/30 01:31:50;;;;;;;2.77;0.87;;;7.10;99.90;;;;;;5031809;28;20208;-57
2021/01/30 01:34:19;;;;;;;1.67;0.82;;;7.10;99.90;;;;;;5032316;28;20244;-51
2021/01/30 01:36:53;;;;;;;2.70;0.80;;;7.10;99.90;;;;;;5031825;28;20231;-52
2021/01/30 01:39:20;;;;;;;0.77;0.77;;;7.10;99.90;;;;;;5032164;28;20392;-50
2021/01/30 01:42:06;;;;;;;0.70;0.70;;;7.10;99.90;;;;;;5031899;28;20208;-50
2021/01/30 01:44:33;;;;;;;1.27;0.80;;;7.00;99.90;;;;;;5032112;28;20299;-52
2021/01/30 01:47:01;;;;;;;0.80;0.80;;;6.90;99.90;;;;;;5031762;28;20207;-51
2021/01/30 01:49:33;;;;;;;0.70;0.67;;;6.90;99.90;;;;;;5032267;28;20248;-54
2021/01/30 01:52:06;;;;;;;0.83;0.80;;;6.80;99.90;;;;;;5032065;28;20288;-52
2021/01/30 01:54:35;;;;;;;0.87;0.70;;;6.80;99.90;;;;;;5031742;28;20236;-55
2021/01/30 01:57:09;;;;;;;0.83;0.83;;;6.70;99.90;;;;;;5031822;28;20248;-54
2021/01/30 01:59:42;;;;;;;1.40;0.67;;;6.70;99.90;;;;;;5031745;28;20263;-54
2021/01/30 02:02:10;;;;;;;1.77;0.90;;;6.60;99.90;;;;;;5031979;28;20259;-50
2021/01/30 02:04:38;;;;;;;1.20;1.10;;;6.60;99.90;;;;;;5031910;28;20235;-55
2021/01/30 02:07:06;;;;;;;0.98;0.80;;;6.60;99.90;;;;;;5031731;28;20204;-59
2021/01/30 02:09:33;;;;;;;1.10;1.00;;;6.60;99.90;;;;;;5031570;28;20240;-56
2021/01/30 02:12:05;;;;;;;1.10;1.00;;;6.70;99.90;;;;;;5031558;28;20295;-59
2021/01/30 02:14:39;;;;;;;0.87;0.73;;;6.70;99.90;;;;;;5031889;28;20219;-60
2021/01/30 02:17:18;;;;;;;1.10;0.83;;;6.70;99.90;;;;;;5031927;28;20318;-58
2021/01/30 02:20:36;;;;;;;1.25;0.80;;;6.80;99.90;;;;;;5031879;28;20212;-51
2021/01/30 02:24:06;;;;;;;0.70;0.60;;;6.80;99.90;;;;;;5032048;28;20213;-56
2021/01/30 02:27:23;;;;;;;1.40;0.80;;;6.90;99.90;;;;;;4951583;29;20211;-56
2021/01/30 02:30:23;;;;;;;1.77;0.90;;;6.90;99.90;;;;;;5031685;28;20275;-51
2021/01/30 02:33:15;;;;;;;1.10;0.80;;;7.00;99.90;;;;;;5031807;28;20219;-53
2021/01/30 02:36:14;;;;;;;0.70;0.70;;;6.90;99.90;;;;;;5031334;28;20327;-55
2021/01/30 02:38:48;;;;;;;0.90;0.90;;;7.00;99.90;;;;;;5031704;28;20295;-48
2021/01/30 02:41:23;;;;;;;0.67;0.67;;;6.90;99.90;;;;;;5032361;28;20251;-51
2021/01/30 02:43:52;;;;;;;1.23;0.70;;;6.90;99.90;;;;;;5035445;28;20308;-51
2021/01/30 02:46:22;;;;;;;1.00;0.70;;;6.90;99.90;;;;;;5035371;28;20630;-53
2021/01/30 02:48:54;;;;;;;0.55;0.55;;;6.90;99.90;;;;;;5035309;28;20209;-50
2021/01/30 02:51:28;;;;;;;0.70;0.70;;;6.90;99.90;;;;;;5035167;28;20389;-52
2021/01/30 02:54:00;;;;;;;1.50;0.60;;;6.90;99.90;;;;;;5035093;28;20207;-52
2021/01/30 02:56:27;;;;;;;1.40;0.97;;;7.00;99.90;;;;;;5034849;28;20240;-53
2021/01/30 02:58:59;;;;;;;0.80;0.50;;;7.00;99.90;;;;;;5034651;28;20209;-47
2021/01/30 03:01:27;;;;;;;0.60;0.60;;;6.90;99.90;;;;;;5035036;28;20217;-50
2021/01/30 03:03:55;;;;;;;1.80;0.60;;;6.80;99.90;;;;;;5034863;28;20311;-52
2021/01/30 03:06:31;;;;;;;0.88;0.70;;;6.80;99.90;;;;;;5034668;28;20664;-50
2021/01/30 03:09:07;;;;;;;0.90;0.60;;;6.80;99.90;;;;;;5034896;28;20212;-48
2021/01/30 03:11:38;;;;;;;0.40;0.40;;;6.80;99.90;;;;;;5034910;28;20213;-51
2021/01/30 03:14:12;;;;;;;1.80;0.73;;;6.70;99.90;;;;;;5035032;28;20219;-51
2021/01/30 03:16:40;;;;;;;0.60;0.60;;;6.70;99.90;;;;;;5034526;28;20270;-50
2021/01/30 03:19:13;;;;;;;1.15;0.60;;;6.80;99.90;;;;;;5034548;28;20640;-51
2021/01/30 03:21:42;;;;;;;0.57;0.57;;;6.80;99.90;;;;;;5034589;28;20300;-50
2021/01/30 03:24:09;;;;;;;0.97;0.63;;;6.80;99.90;;;;;;5034661;28;20387;-48
2021/01/30 03:26:42;;;;;;;2.50;0.77;;;6.80;99.90;;;;;;5034579;28;20667;-55
2021/01/30 03:29:12;;;;;;;1.08;0.73;;;6.90;99.90;;;;;;5034484;28;20263;-55
2021/01/30 03:31:39;;;;;;;1.00;0.60;;;7.00;99.90;;;;;;5034596;28;20755;-56
2021/01/30 03:34:07;;;;;;;4.43;1.00;;;7.00;99.90;;;;;;5034490;28;20295;-51
2021/01/30 03:36:34;;;;;;;1.40;0.60;;;7.00;99.90;;;;;;5034307;28;20608;-57
2021/01/30 03:39:04;;;;;;;0.80;0.80;;;7.00;99.90;;;;;;5034224;28;20271;-49
2021/01/30 03:41:31;;;;;;;0.70;0.60;;;6.80;99.90;;;;;;5034166;28;20299;-48
2021/01/30 03:43:58;;;;;;;0.88;0.80;;;6.80;99.90;;;;;;5034092;28;20266;-52
2021/01/30 03:46:25;;;;;;;0.67;0.67;;;6.80;99.90;;;;;;5034284;28;20209;-50
2021/01/30 03:48:52;;;;;;;1.77;0.90;;;6.80;99.90;;;;;;5034209;28;20220;-52
2021/01/30 03:51:19;;;;;;;3.20;0.80;;;6.70;99.90;;;;;;5033979;28;20243;-48
2021/01/30 03:53:46;;;;;;;1.80;1.00;;;6.80;99.90;;;;;;5033003;28;20295;-50
2021/01/30 03:56:14;;;;;;;3.22;1.05;;;6.80;99.90;;;;;;5033623;28;20256;-50
2021/01/30 03:58:43;;;;;;;1.60;0.70;;;6.80;99.90;;;;;;5033777;28;20323;-52
2021/01/30 04:01:11;;;;;;;3.47;1.02;;;6.80;99.90;;;;;;5033728;28;20209;-56
2021/01/30 04:03:38;;;;;;;0.82;0.70;;;6.80;99.90;;;;;;5033630;28;20684;-54
2021/01/30 04:06:10;;;;;;;1.77;0.93;;;6.80;99.90;;;;;;5033606;28;20743;-59
2021/01/30 04:08:37;;;;;;;0.97;0.80;;;6.80;99.90;;;;;;5033617;28;20295;-54
2021/01/30 04:11:04;;;;;;;3.05;1.00;;;6.80;99.90;;;;;;5033365;28;20212;-55
2021/01/30 04:13:32;;;;;;;0.70;0.70;;;6.80;99.90;;;;;;5033501;28;20263;-57
2021/01/30 04:15:59;;;;;;;2.63;0.73;;;6.80;99.90;;;;;;5033396;28;20292;-59
2021/01/30 04:18:26;;;;;;;1.60;0.77;;;6.80;99.90;;;;;;5033512;28;20284;-52
2021/01/30 04:20:53;;;;;;;0.73;0.70;;;6.80;99.90;;;;;;5033900;28;20308;-49
2021/01/30 04:23:20;;;;;;;2.97;1.20;;;6.80;99.90;;;;;;5033668;28;20577;-51
2021/01/30 04:25:47;;;;;;;1.27;1.00;;;6.90;99.90;;;;;;5033773;28;20211;-50
2021/01/30 04:28:14;;;;;;;1.10;0.98;;;6.90;99.90;;;;;;5033685;28;20205;-53
2021/01/30 04:30:42;;;;;;;0.90;0.80;;;6.90;99.90;;;;;;5033460;28;20205;-54
2021/01/30 04:33:09;;;;;;;2.20;0.70;;;6.90;99.90;;;;;;5033291;28;20299;-51
2021/01/30 04:35:37;;;;;;;1.30;0.80;;;6.90;99.90;;;;;;5033314;28;20209;-49
2021/01/30 04:38:05;;;;;;;2.53;1.00;;;6.90;99.90;;;;;;5033171;28;20240;-50
2021/01/30 04:40:35;;;;;;;2.83;0.97;;;7.00;99.90;;;;;;5033055;28;20687;-50
2021/01/30 04:43:12;;;;;;;2.13;0.90;;;7.00;99.90;;;;;;5033309;28;20205;-50
2021/01/30 04:46:03;;;;;;;1.73;1.13;;;7.00;99.90;;;;;;5032966;28;20220;-51
2021/01/30 04:48:49;;;;;;;2.72;1.15;;;7.00;99.90;;;;;;5032662;28;20701;-51
2021/01/30 04:51:21;;;;;;;2.40;1.87;;;6.90;99.90;;;;;;5032827;28;20693;-53
2021/01/30 04:54:15;;;;;;;3.40;1.77;;;6.90;99.90;;;;;;5033265;28;20244;-54
2021/01/30 04:56:56;;;;;;;3.08;1.70;;;6.90;99.90;;;;;;5032559;28;20323;-53
2021/01/30 04:59:30;;;;;;;3.70;1.53;;;6.90;99.90;;;;;;5032889;28;20299;-54
2021/01/30 05:02:01;;;;;;;3.13;1.30;;;6.80;99.90;;;;;;5032977;28;20226;-52
2021/01/30 05:04:32;;;;;;;4.90;1.40;;;6.80;99.90;;;;;;5032546;28;20208;-52
2021/01/30 05:07:13;;;;;;;3.20;1.25;;;6.80;99.90;;;;;;5032385;28;20208;-49
2021/01/30 05:09:46;;;;;;;3.85;1.60;;;6.80;99.90;;;;;;5032643;28;20246;-51
2021/01/30 05:12:18;;;;;;;2.57;1.07;;;6.80;99.90;;;;;;5032454;28;20291;-51
2021/01/30 05:15:01;;;;;;;4.97;1.73;;;6.80;99.90;;;;;;5032519;28;20295;-53
2021/01/30 05:17:35;;;;;;;3.58;1.38;;;6.80;99.90;;;;;;5032190;28;20271;-51
2021/01/30 05:20:07;;;;;;;4.83;1.83;;;6.80;99.90;;;;;;5032511;28;20208;-56
2021/01/30 05:22:39;;;;;;;5.75;1.83;;;6.80;99.90;;;;;;5032433;28;20304;-51
2021/01/30 05:25:09;;;;;;;6.97;1.47;;;6.80;99.90;;;;;;5032509;28;20395;-50
2021/01/30 05:27:54;;;;;;;3.40;1.20;;;6.80;99.90;;;;;;5032498;28;20645;-51
2021/01/30 05:30:31;;;;;;;4.20;1.60;;;6.80;99.90;;;;;;5029136;28;20232;-52
2021/01/30 05:33:36;;;;;;;4.53;1.40;;;6.80;99.90;;;;;;5032100;28;20282;-54
2021/01/30 05:36:09;;;;;;;6.33;2.07;;;6.80;99.90;;;;;;5029295;28;20690;-52
2021/01/30 05:38:58;;;;;;;3.47;1.73;;;6.80;99.90;;;;;;5032279;28;20642;-52
2021/01/30 05:41:53;;;;;;;6.30;2.80;;;6.80;99.90;;;;;;5032237;28;20295;-54
2021/01/30 05:44:27;;;;;;;5.10;1.98;;;6.80;99.90;;;;;;5029771;28;20291;-53
2021/01/30 05:46:54;;;;;;;2.37;1.30;;;6.80;99.90;;;;;;5031941;28;20255;-56
2021/01/30 05:49:28;;;;;;;4.37;2.27;;;6.80;99.90;;;;;;5031105;28;20213;-52
2021/01/30 05:52:01;;;;;;;6.40;2.00;;;6.80;99.90;;;;;;5031940;28;20277;-52
2021/01/30 05:54:28;;;;;;;8.47;2.03;;;6.80;99.90;;;;;;5031862;28;20303;-53
2021/01/30 05:56:55;;;;;;;4.63;2.08;;;6.80;99.90;;;;;;5031623;28;20268;-51
2021/01/30 05:59:25;;;;;;;7.90;2.20;;;6.80;99.90;;;;;;5031592;28;20659;-51
2021/01/30 06:02:10;;;;;;;5.40;1.37;;;6.90;99.90;;;;;;5031959;28;20287;-52
2021/01/30 06:04:37;;;;;;;5.13;1.50;;;6.90;99.90;;;;;;5031759;28;20639;-53
2021/01/30 06:07:06;;;;;;;4.63;1.50;;;6.80;99.90;;;;;;5031884;28;20244;-52
2021/01/30 06:09:36;;;;;;;5.77;1.50;;;6.80;99.90;;;;;;5031543;28;20248;-51
2021/01/30 06:12:22;;;;;;;3.83;1.40;;;6.80;99.90;;;;;;5031825;28;20677;-51
2021/01/30 06:14:50;;;;;;;3.78;1.52;;;6.90;99.90;;;;;;5031998;28;20292;-50
2021/01/30 06:17:29;;;;;;;3.53;1.85;;;6.90;99.90;;;;;;5034309;28;20256;-51
2021/01/30 06:20:05;;;;;;;4.93;1.90;;;6.90;99.90;;;;;;5035702;28;20592;-49
2021/01/30 06:22:33;;;;;;;4.75;1.25;;;6.90;99.90;;;;;;5035454;28;20295;-49
2021/01/30 06:25:21;;;;;;;4.53;2.10;;;6.90;99.90;;;;;;5035678;28;20661;-52
2021/01/30 06:27:52;;;;;;;3.35;1.80;;;6.90;99.90;;;;;;5035733;28;20239;-51
2021/01/30 06:30:35;;;;;;;2.65;1.58;;;6.90;99.90;;;;;;5035491;28;20275;-54
2021/01/30 06:33:06;;;;;;;2.33;1.20;;;6.90;99.90;;;;;;5036099;28;20226;-52
2021/01/30 06:35:38;;;;;;;6.13;1.47;;;6.90;99.90;;;;;;5035651;28;20464;-49
2021/01/30 06:38:12;;;;;;;4.70;1.70;;;6.90;99.90;;;;;;5035257;28;20619;-50
2021/01/30 06:40:51;;;;;;;5.65;1.67;;;6.80;99.90;;;;;;5035201;28;20220;-53
2021/01/30 06:43:25;;;;;;;5.90;2.00;;;6.80;99.90;;;;;;5035179;28;20247;-52
2021/01/30 06:46:02;;;;;;;4.83;1.60;;;6.80;99.90;;;;;;5035531;28;20331;-52
2021/01/30 06:48:32;;;;;;;3.03;1.67;;;6.80;99.90;;;;;;5035339;28;20204;-52
2021/01/30 06:51:00;;;;;;;4.30;1.40;;;6.80;99.90;;;;;;5035246;28;20715;-49
2021/01/30 06:53:30;;;;;;;2.90;1.60;;;6.70;99.90;;;;;;5035300;28;20663;-50
2021/01/30 06:56:12;;;;;;;4.70;2.17;;;6.70;99.90;;;;;;5035353;28;20710;-52
2021/01/30 06:58:42;;;;;;;6.53;2.13;;;6.60;99.90;;;;;;5034882;28;20239;-52
2021/01/30 07:01:12;;;;;;;2.57;1.33;;;6.60;99.90;;;;;;5034934;28;20643;-51
2021/01/30 07:04:03;;;;;;;3.93;1.47;;;6.60;99.90;;;;;;5035044;28;20208;-53
2021/01/30 07:06:39;;;;;;;4.97;1.98;;;6.60;99.90;;;;;;5035432;28;20572;-52
2021/01/30 07:09:24;;;;;;;2.63;1.63;;;6.60;99.90;;;;;;5034998;28;20335;-51
2021/01/30 07:11:55;;;;;;;2.93;1.43;;;6.70;99.90;;;;;;5034928;28;20299;-56
2021/01/30 07:14:40;;;;;;;2.22;1.20;;;6.70;99.90;;;;;;5034718;28;20630;-48
2021/01/30 07:17:16;;;;;;;5.07;1.57;;;6.80;99.90;;;;;;5034616;28;20209;-54
2021/01/30 07:19:58;;;;;;;3.43;1.30;;;6.80;99.90;;;;;;5034575;28;20212;-57
2021/01/30 07:22:33;;;;;;;3.63;1.67;;;6.80;99.90;;;;;;5034927;28;20244;-53
2021/01/30 07:25:07;;;;;;;6.13;2.77;;;6.80;99.90;;;;;;5034704;28;20675;-54
2021/01/30 07:27:39;;;;;;;3.45;2.70;;;6.80;99.90;;;;;;5033406;28;20638;-55
2021/01/30 07:30:14;;;;;;;2.35;1.40;;;6.80;99.90;;;;;;5034370;28;20674;-53
2021/01/30 07:32:48;;;;;;;3.70;2.43;;;6.80;99.90;;;;;;5034361;28;20211;-53
2021/01/30 07:35:21;;;;;;;4.70;1.67;;;6.80;99.90;;;;;;5034580;28;20262;-53
2021/01/30 07:37:54;;;;;;;2.67;1.60;;;6.90;99.90;;;;;;5034444;28;20264;-54
2021/01/30 07:40:33;;;;;;;6.30;2.03;;;6.90;99.90;;;;;;5034426;28;20240;-54
2021/01/30 07:43:09;;;;;;;3.17;1.73;;;6.90;99.90;;;;;;5034262;28;20217;-55
2021/01/30 07:45:41;;;;;;;3.30;1.60;;;7.00;99.90;;;;;;5034365;28;20596;-56
2021/01/30 07:48:15;;;;;;;4.77;1.60;;;7.00;99.90;;;;;;5034270;28;20610;-52
2021/01/30 07:50:47;;;;;;;2.93;1.60;;;7.00;99.90;;;;;;5034123;28;20671;-56
2021/01/30 07:53:17;;;;;;;6.00;2.03;;;7.00;99.90;;;;;;5034105;28;20290;-51
2021/01/30 07:56:12;;;;;;;2.53;1.80;;;7.00;99.90;;;;;;5033785;28;20212;-52
2021/01/30 07:59:01;;;;;;;5.97;1.90;;;7.00;99.90;;;;;;5033745;28;20244;-53
2021/01/30 08:02:02;;;;;;;3.83;2.20;;;7.00;99.90;;;;;;5034002;28;20293;-54
2021/01/30 08:05:02;;;;;;;4.60;2.53;;;7.00;99.90;;;;;;5033873;28;20209;-53
2021/01/30 08:07:45;;;;;;;3.50;2.07;;;7.00;99.90;;;;;;5033922;28;20293;-55
2021/01/30 08:10:22;;;;;;;3.03;1.97;;;7.00;99.90;;;;;;5033745;28;20636;-51
2021/01/30 08:13:19;;;;;;;5.93;1.70;;;7.00;99.90;;;;;;5033945;28;20267;-55
2021/01/30 08:15:50;;;;;;;5.70;2.03;;;7.00;99.90;;;;;;5031571;28;20614;-52
2021/01/30 08:18:25;;;;;;;4.20;2.35;;;7.00;99.90;;;;;;5033439;28;20239;-50
2021/01/30 08:20:56;;;;;;;5.10;1.53;;;7.00;99.90;;;;;;5033541;28;20212;-49
2021/01/30 08:23:41;;;;;;;4.05;1.92;;;7.00;99.90;;;;;;5033466;28;20299;-55
2021/01/30 08:26:18;;;;;;;5.37;1.90;;;7.00;99.90;;;;;;5033508;28;20213;-51
2021/01/30 08:29:00;;;;;;;4.95;2.05;;;7.10;99.90;;;;;;5033462;28;20209;-51
2021/01/30 08:31:39;;;;;;;3.87;2.07;;;7.10;99.90;;;;;;5033176;28;20286;-52
2021/01/30 08:34:24;;;;;;;5.63;2.47;;;7.10;99.90;;;;;;5033264;28;20236;-50
2021/01/30 08:36:52;;;;;;;5.67;3.13;;;7.10;99.90;;;;;;5033177;28;20204;-54
2021/01/30 08:39:24;;;;;;;4.07;2.53;;;7.20;99.90;;;;;;5032500;28;20317;-52
2021/01/30 08:41:57;;;;;;;5.82;2.35;;;7.20;99.90;;;;;;5033024;28;20219;-52
2021/01/30 08:44:46;;;;;;;5.28;2.00;;;7.20;99.90;;;;;;5032903;28;20213;-51
2021/01/30 08:47:20;;;;;;;7.33;2.60;;;7.30;99.90;;;;;;5032776;28;20248;-55
2021/01/30 08:50:01;;;;;;;7.83;2.10;;;7.30;99.90;;;;;;5032972;28;20215;-54
2021/01/30 08:52:45;;;;;;;7.40;1.97;;;7.30;99.90;;;;;;5033227;28;20247;-56
2021/01/30 08:55:47;;;;;;;5.80;2.27;;;7.30;99.90;;;;;;5033046;28;20632;-56
2021/01/30 08:58:51;;;;;;;5.82;2.08;;;7.40;99.90;;;;;;5032782;28;20267;-54
2021/01/30 09:01:49;;;;;;;9.90;2.80;;;7.40;99.90;;;;;;5032554;28;20746;-53
2021/01/30 09:04:44;;;;;;;4.97;2.40;;;7.40;99.90;;;;;;4988716;28;20488;-57
2021/01/30 09:07:36;;;;;;;8.50;3.20;;;7.50;99.90;;;;;;5033014;28;20208;-55
2021/01/30 09:10:29;;;;;;;8.45;4.25;;;7.50;99.90;;;;;;5022114;28;20205;-56
2021/01/30 09:12:59;;;;;;;4.75;2.90;;;7.50;99.90;;;;;;5032406;28;20220;-56
2021/01/30 09:16:01;;;;;;;8.30;2.25;;;7.60;99.90;;;;;;5032588;28;20362;-58
2021/01/30 09:18:48;;;;;;;9.82;3.03;;;7.60;99.90;;;;;;5032269;28;20255;-55
2021/01/30 09:21:23;;;;;;;7.68;2.85;;;7.70;99.90;;;;;;5032257;28;20718;-56
2021/01/30 09:24:16;;;;;;;5.68;2.60;;;7.80;99.90;;;;;;5032440;28;20255;-56
2021/01/30 09:26:51;;;;;;;5.13;2.65;;;7.80;99.90;;;;;;5032619;28;20212;-52
2021/01/30 09:29:21;;;;;;;10.95;3.47;;;7.90;99.90;;;;;;5032733;28;20250;-56
2021/01/30 09:31:55;;;;;;;8.82;3.25;;;7.90;99.90;;;;;;5032212;28;20221;-53
2021/01/30 09:34:27;;;;;;;9.52;2.97;;;8.00;99.90;;;;;;5032449;28;20594;-55
2021/01/30 09:36:54;;;;;;;6.65;2.22;;;8.00;99.90;;;;;;5032273;28;20304;-57
2021/01/30 09:39:24;;;;;;;8.10;3.13;;;8.10;99.90;;;;;;5032011;28;20225;-52
2021/01/30 09:41:51;;;;;;;5.95;2.22;;;8.20;99.90;;;;;;5032187;28;20694;-56
2021/01/30 09:44:23;;;;;;;6.13;2.63;;;8.20;99.90;;;;;;5032079;28;20316;-56
2021/01/30 09:46:54;;;;;;;9.52;2.92;;;8.20;99.90;;;;;;5032188;28;20728;-57
2021/01/30 09:49:25;;;;;;;11.13;2.63;;;8.30;99.90;;;;;;5032006;28;20208;-50
2021/01/30 09:51:55;;;;;;;6.20;2.20;;;8.40;99.90;;;;;;5031312;28;20266;-56
2021/01/30 09:54:24;;;;;;;4.43;1.80;;;8.50;99.90;;;;;;5032060;28;20647;-53
2021/01/30 09:56:56;;;;;;;10.47;6.10;;;8.50;99.90;;;;;;5031596;28;20320;-53
2021/01/30 09:59:27;;;;;;;6.97;2.87;;;8.60;99.90;;;;;;5031948;28;20324;-55
2021/01/30 10:02:09;;;;;;;4.85;2.50;;;8.60;99.90;;;;;;5032004;28;20232;-53
2021/01/30 10:04:40;;;;;;;4.30;2.40;;;8.70;99.90;;;;;;5031800;28;20234;-51
2021/01/30 10:07:10;;;;;;;7.43;2.72;;;8.80;99.90;;;;;;5031972;28;20621;-52
2021/01/30 10:09:42;;;;;;;7.32;2.67;;;8.90;99.90;;;;;;5032119;28;20320;-53
2021/01/30 10:12:10;;;;;;;4.78;2.15;;;9.10;99.90;;;;;;5031663;28;20278;-54
2021/01/30 10:14:43;;;;;;;8.82;2.45;;;9.20;99.90;;;;;;5031940;28;20244;-50
2021/01/30 10:17:16;;;;;;;3.70;2.08;;;9.40;99.90;;;;;;5031702;28;20230;-54
2021/01/30 10:19:44;;;;;;;5.70;2.60;;;9.40;99.90;;;;;;5031522;28;20240;-53
2021/01/30 10:22:16;;;;;;;5.75;3.40;;;9.30;99.90;;;;;;5031929;28;20209;-51
2021/01/30 10:24:44;;;;;;;7.82;2.20;;;9.30;99.90;;;;;;5031755;28;20205;-55
2021/01/30 10:27:15;;;;;;;4.85;2.00;;;9.40;99.90;;;;;;5031560;28;20255;-51
2021/01/30 10:29:43;;;;;;;5.38;2.88;;;9.30;99.90;;;;;;5031789;28;20278;-53
2021/01/30 10:32:14;;;;;;;70.75;39.22;;;9.30;99.90;;;;;;5031480;28;20215;-52
2021/01/30 10:34:46;;;;;;;7.00;4.07;;;9.30;99.90;;;;;;5032000;28;20212;-48
2021/01/30 10:37:17;;;;;;;6.40;2.97;;;9.30;99.90;;;;;;5031555;28;20232;-52
2021/01/30 10:39:48;;;;;;;5.70;2.72;;;9.30;99.90;;;;;;5031343;28;20653;-54
2021/01/30 10:42:19;;;;;;;6.90;2.42;;;9.30;99.90;;;;;;5031455;28;20307;-51
2021/01/30 10:44:48;;;;;;;9.35;2.47;;;9.40;99.90;;;;;;5031223;28;20594;-52
2021/01/30 10:47:21;;;;;;;7.30;2.55;;;9.40;99.90;;;;;;5031446;28;20228;-54
2021/01/30 10:49:49;;;;;;;4.63;2.13;;;9.40;99.90;;;;;;5031542;28;20211;-56
2021/01/30 10:52:23;;;;;;;4.60;1.80;;;9.50;99.90;;;;;;5031362;28;20632;-57
2021/01/30 10:54:51;;;;;;;3.85;1.63;;;9.50;99.90;;;;;;5031385;28;20227;-58
2021/01/30 10:57:29;;;;;;;7.30;2.42;;;9.50;99.90;;;;;;5031107;28;20251;-55
2021/01/30 10:59:59;;;;;;;7.10;2.25;;;9.50;99.90;;;;;;5031378;28;20217;-54
2021/01/30 11:02:44;;;;;;;4.22;2.50;;;9.50;99.90;;;;;;5032542;28;20205;-50
2021/01/30 11:05:29;;;;;;;7.57;2.05;;;9.50;99.90;;;;;;5034936;28;20223;-51
2021/01/30 11:08:01;;;;;;;6.72;2.45;;;9.50;99.90;;;;;;5035315;28;20255;-53
2021/01/30 11:10:37;;;;;;;5.93;1.95;;;9.50;99.90;;;;;;5034893;28;20220;-51
2021/01/30 11:13:14;;;;;;;5.78;2.00;;;9.50;99.90;;;;;;5034875;28;20219;-55
2021/01/30 11:15:45;;;;;;;4.80;2.10;;;9.50;99.90;;;;;;5034575;28;20217;-53
2021/01/30 11:18:30;;;;;;;8.40;2.60;;;9.60;99.90;;;;;;5034719;28;20260;-57
2021/01/30 11:20:59;;;;;;;9.50;3.08;;;9.60;99.90;;;;;;5034799;28;20300;-53
2021/01/30 11:23:41;;;;;;;8.48;2.97;;;9.60;99.90;;;;;;5034530;28;20292;-53
2021/01/30 11:26:16;;;;;;;8.93;2.28;;;9.70;99.90;;;;;;5034316;28;20236;-51
2021/01/30 11:28:44;;;;;;;7.22;2.80;;;9.80;99.90;;;;;;5034524;28;20272;-50
2021/01/30 11:31:13;;;;;;;8.68;2.30;;;9.90;99.90;;;;;;5034357;28;20287;-53
2021/01/30 11:33:40;;;;;;;6.05;2.38;;;9.90;99.90;;;;;;5034192;28;20343;-52
2021/01/30 11:36:11;;;;;;;6.28;1.92;;;9.90;99.90;;;;;;5034072;28;20255;-56
2021/01/30 11:38:38;;;;;;;7.30;2.45;;;9.90;99.90;;;;;;5033725;28;20623;-54
2021/01/30 11:41:05;;;;;;;8.07;2.90;;;9.90;99.90;;;;;;5034251;28;20292;-56
2021/01/30 11:43:34;;;;;;;4.47;2.40;;;9.90;99.90;;;;;;5034020;28;20303;-56
2021/01/30 11:46:01;;;;;;;5.67;2.03;;;9.90;99.90;;;;;;5034265;28;20317;-52
2021/01/30 11:48:28;;;;;;;6.38;2.35;;;9.90;99.90;;;;;;5033881;28;20212;-52
2021/01/30 11:50:55;;;;;;;4.72;1.65;;;9.90;99.90;;;;;;5033897;28;20216;-54
2021/01/30 11:53:26;;;;;;;6.00;1.90;;;9.90;99.90;;;;;;5033923;28;20308;-52
2021/01/30 11:55:55;;;;;;;5.95;2.05;;;9.90;99.90;;;;;;5034064;28;20302;-53
2021/01/30 11:58:22;;;;;;;4.38;1.85;;;9.90;99.90;;;;;;5033301;28;20319;-55
2021/01/30 12:00:49;;;;;;;4.50;2.10;;;9.80;99.90;;;;;;5033874;28;20633;-59
2021/01/30 12:03:23;;;;;;;2.85;1.67;;;9.80;99.90;;;;;;5033586;28;20672;-56
2021/01/30 12:05:51;;;;;;;5.63;1.60;;;9.70;99.90;;;;;;5033435;28;20295;-51
2021/01/30 12:08:18;;;;;;;10.38;2.90;;;9.60;99.90;;;;;;5033580;28;20295;-58
2021/01/30 12:10:50;;;;;;;4.82;2.05;;;9.60;99.90;;;;;;5033625;28;20668;-55
2021/01/30 12:13:18;;;;;;;2.85;1.45;;;9.60;99.90;;;;;;5033362;28;20232;-53
2021/01/30 12:15:45;;;;;;;5.30;3.33;;;9.70;99.90;;;;;;5033147;28;20248;-59
2021/01/30 12:18:14;;;;;;;7.55;2.13;;;9.60;99.80;;;;;;5033247;28;20251;-52
2021/01/30 12:20:42;;;;;;;4.30;2.33;;;9.70;99.80;;;;;;5033546;28;20212;-56
2021/01/30 12:23:10;;;;;;;5.70;1.60;;;9.70;99.90;;;;;;5033561;28;20296;-53
2021/01/30 12:25:37;;;;;;;5.82;2.00;;;9.70;99.70;;;;;;5033422;28;20248;-54
2021/01/30 12:28:07;;;;;;;4.00;1.73;;;9.70;99.60;;;;;;5033246;28;20219;-58
2021/01/30 12:30:36;;;;;;;2.60;1.60;;;9.60;99.70;;;;;;5033256;28;20695;-56
2021/01/30 12:33:05;;;;;;;2.47;1.63;;;9.60;99.70;;;;;;5033012;28;20679;-56
2021/01/30 12:35:33;;;;;;;4.47;1.85;;;9.60;99.50;;;;;;5033289;28;20278;-53
2021/01/30 12:38:01;;;;;;;5.38;1.60;;;9.60;99.70;;;;;;5033125;28;20295;-56
2021/01/30 12:40:33;;;;;;;4.03;1.60;;;9.60;99.60;;;;;;5032869;28;20215;-55
2021/01/30 12:43:02;;;;;;;5.32;2.00;;;9.50;99.70;;;;;;5032953;28;20563;-57
2021/01/30 12:45:30;;;;;;;10.87;5.80;;;9.50;99.80;;;;;;5032602;28;20711;-57
2021/01/30 12:47:59;;;;;;;7.15;2.60;;;9.50;99.70;;;;;;5032845;28;20600;-57
2021/01/30 12:50:28;;;;;;;3.50;2.00;;;9.50;99.90;;;;;;5032667;28;20572;-59
2021/01/30 12:52:57;;;;;;;5.70;2.88;;;9.50;99.90;;;;;;5032903;28;20292;-56
2021/01/30 12:55:25;;;;;;;6.55;2.50;;;9.50;99.90;;;;;;5032766;28;20304;-58
2021/01/30 12:57:53;;;;;;;5.70;1.80;;;9.60;99.90;;;;;;5031993;28;20240;-58
2021/01/30 13:00:23;;;;;;;7.55;2.03;;;9.60;99.90;;;;;;5032349;28;20304;-59
2021/01/30 13:02:52;;;;;;;4.60;1.98;;;9.60;99.80;;;;;;5032637;28;20255;-55
2021/01/30 13:05:21;;;;;;;7.32;2.20;;;9.60;99.70;;;;;;5032599;28;20282;-57
2021/01/30 13:07:48;;;;;;;9.13;3.17;;;9.60;99.90;;;;;;5032321;28;20547;-56
2021/01/30 13:10:18;;;;;;;7.75;2.28;;;9.60;99.80;;;;;;5032366;28;20236;-51
2021/01/30 13:12:45;;;;;;;2.92;1.95;;;9.60;99.80;;;;;;5032291;28;20396;-58
2021/01/30 13:15:13;;;;;;;5.35;3.17;;;9.60;99.70;;;;;;5032301;28;20243;-54
2021/01/30 13:17:40;;;;;;;3.75;2.08;;;9.50;99.70;;;;;;5032214;28;20213;-57
2021/01/30 13:20:10;;;;;;;3.97;2.05;;;9.60;99.80;;;;;;5032162;28;20228;-56
2021/01/30 13:22:37;;;;;;;6.60;2.20;;;9.60;99.70;;;;;;5032041;28;20255;-57
2021/01/30 13:25:06;;;;;;;6.23;3.50;;;9.60;99.70;;;;;;5032043;28;20208;-58
2021/01/30 13:27:34;;;;;;;4.60;2.08;;;9.70;99.70;;;;;;5032352;28;20589;-58
2021/01/30 13:30:02;;;;;;;6.10;2.28;;;9.80;99.60;;;;;;5032206;28;20231;-57